sensor_id;sensor_type;location;lat;lon;timestamp;temperature;humidity
75769;DHT22;64379;48.888;8.330;2023-12-14T00:01:20;7.20;87.60
75769;DHT22;64379;48.888;8.330;2023-12-14T00:03:45;7.10;87.90
75769;DHT22;64379;48.888;8.330;2023-12-14T00:06:12;7.10;88.10
75769;DHT22;64379;48.888;8.330;2023-12-14T00:08:38;7.10;88.20
75769;DHT22;64379;48.888;8.330;2023-12-14T00:11:05;7.10;88.50
75769;DHT22;64379;48.888;8.330;2023-12-14T00:13:31;7.00;88.70
75769;DHT22;64379;48.888;8.330;2023-12-14T00:15:57;7.00;88.90
75769;DHT22;64379;48.888;8.330;2023-12-14T00:18:22;7.00;89.10
75769;DHT22;64379;48.888;8.330;2023-12-14T00:20:48;7.00;89.30
75769;DHT22;64379;48.888;8.330;2023-12-14T00:23:14;7.00;89.40
75769;DHT22;64379;48.888;8.330;2023-12-14T00:25:39;7.00;89.60
75769;DHT22;64379;48.888;8.330;2023-12-14T00:28:05;7.00;89.70
75769;DHT22;64379;48.888;8.330;2023-12-14T00:30:31;7.00;89.80
75769;DHT22;64379;48.888;8.330;2023-12-14T00:32:57;7.00;89.90
75769;DHT22;64379;48.888;8.330;2023-12-14T00:35:23;7.00;90.00
75769;DHT22;64379;48.888;8.330;2023-12-14T00:37:48;7.00;90.00
75769;DHT22;64379;48.888;8.330;2023-12-14T00:40:14;7.00;90.00
75769;DHT22;64379;48.888;8.330;2023-12-14T00:42:39;7.00;90.00
75769;DHT22;64379;48.888;8.330;2023-12-14T00:45:05;7.00;90.00
75769;DHT22;64379;48.888;8.330;2023-12-14T00:47:31;7.00;90.00
75769;DHT22;64379;48.888;8.330;2023-12-14T00:49:56;7.00;89.90
75769;DHT22;64379;48.888;8.330;2023-12-14T00:52:22;7.00;89.90
75769;DHT22;64379;48.888;8.330;2023-12-14T00:54:47;7.00;89.90
75769;DHT22;64379;48.888;8.330;2023-12-14T00:57:13;7.00;90.00
75769;DHT22;64379;48.888;8.330;2023-12-14T00:59:39;7.10;90.00
75769;DHT22;64379;48.888;8.330;2023-12-14T01:02:06;7.10;89.90
75769;DHT22;64379;48.888;8.330;2023-12-14T01:04:31;7.20;89.80
75769;DHT22;64379;48.888;8.330;2023-12-14T01:06:57;7.20;89.70
75769;DHT22;64379;48.888;8.330;2023-12-14T01:09:23;7.20;89.70
75769;DHT22;64379;48.888;8.330;2023-12-14T01:11:48;7.20;89.70
75769;DHT22;64379;48.888;8.330;2023-12-14T01:14:14;7.20;89.70
75769;DHT22;64379;48.888;8.330;2023-12-14T01:16:39;7.20;89.50
75769;DHT22;64379;48.888;8.330;2023-12-14T01:19:05;7.20;89.50
75769;DHT22;64379;48.888;8.330;2023-12-14T01:21:31;7.20;89.40
75769;DHT22;64379;48.888;8.330;2023-12-14T01:23:57;7.20;89.40
75769;DHT22;64379;48.888;8.330;2023-12-14T01:26:23;7.20;89.40
75769;DHT22;64379;48.888;8.330;2023-12-14T01:28:48;7.20;89.50
75769;DHT22;64379;48.888;8.330;2023-12-14T01:31:14;7.20;89.40
75769;DHT22;64379;48.888;8.330;2023-12-14T01:33:39;7.20;89.30
75769;DHT22;64379;48.888;8.330;2023-12-14T01:36:05;7.20;89.20
75769;DHT22;64379;48.888;8.330;2023-12-14T01:38:31;7.20;89.00
75769;DHT22;64379;48.888;8.330;2023-12-14T01:40:57;7.20;88.70
75769;DHT22;64379;48.888;8.330;2023-12-14T01:43:23;7.20;88.40
75769;DHT22;64379;48.888;8.330;2023-12-14T01:45:49;7.30;88.20
75769;DHT22;64379;48.888;8.330;2023-12-14T01:48:14;7.30;88.00
75769;DHT22;64379;48.888;8.330;2023-12-14T01:50:40;7.30;87.90
75769;DHT22;64379;48.888;8.330;2023-12-14T01:53:05;7.40;87.70
75769;DHT22;64379;48.888;8.330;2023-12-14T01:55:31;7.40;87.70
75769;DHT22;64379;48.888;8.330;2023-12-14T01:57:57;7.40;87.60
75769;DHT22;64379;48.888;8.330;2023-12-14T02:02:56;7.30;87.70
75769;DHT22;64379;48.888;8.330;2023-12-14T02:05:21;7.40;87.70
75769;DHT22;64379;48.888;8.330;2023-12-14T02:07:47;7.30;87.80
75769;DHT22;64379;48.888;8.330;2023-12-14T02:10:13;7.30;87.80
75769;DHT22;64379;48.888;8.330;2023-12-14T02:12:38;7.40;87.80
75769;DHT22;64379;48.888;8.330;2023-12-14T02:15:04;7.30;88.00
75769;DHT22;64379;48.888;8.330;2023-12-14T02:17:30;7.30;88.10
75769;DHT22;64379;48.888;8.330;2023-12-14T02:19:56;7.30;88.20
75769;DHT22;64379;48.888;8.330;2023-12-14T02:22:22;7.30;88.40
75769;DHT22;64379;48.888;8.330;2023-12-14T02:24:47;7.20;88.60
75769;DHT22;64379;48.888;8.330;2023-12-14T02:27:13;7.20;88.80
75769;DHT22;64379;48.888;8.330;2023-12-14T02:29:38;7.20;89.00
75769;DHT22;64379;48.888;8.330;2023-12-14T02:32:05;7.20;89.20
75769;DHT22;64379;48.888;8.330;2023-12-14T02:34:31;7.20;89.30
75769;DHT22;64379;48.888;8.330;2023-12-14T02:36:56;7.20;89.40
75769;DHT22;64379;48.888;8.330;2023-12-14T02:39:22;7.20;89.40
75769;DHT22;64379;48.888;8.330;2023-12-14T02:41:48;7.20;89.50
75769;DHT22;64379;48.888;8.330;2023-12-14T02:44:13;7.20;89.70
75769;DHT22;64379;48.888;8.330;2023-12-14T02:46:39;7.20;89.70
75769;DHT22;64379;48.888;8.330;2023-12-14T02:49:04;7.20;89.80
75769;DHT22;64379;48.888;8.330;2023-12-14T02:51:30;7.20;89.90
75769;DHT22;64379;48.888;8.330;2023-12-14T02:53:55;7.20;90.00
75769;DHT22;64379;48.888;8.330;2023-12-14T02:56:23;7.20;90.10
75769;DHT22;64379;48.888;8.330;2023-12-14T02:58:49;7.20;90.20
75769;DHT22;64379;48.888;8.330;2023-12-14T03:01:19;7.20;90.30
75769;DHT22;64379;48.888;8.330;2023-12-14T03:03:46;7.20;90.40
75769;DHT22;64379;48.888;8.330;2023-12-14T03:06:11;7.20;90.50
75769;DHT22;64379;48.888;8.330;2023-12-14T03:08:37;7.20;90.60
75769;DHT22;64379;48.888;8.330;2023-12-14T03:11:02;7.20;90.60
75769;DHT22;64379;48.888;8.330;2023-12-14T03:13:28;7.20;90.70
75769;DHT22;64379;48.888;8.330;2023-12-14T03:15:54;7.20;90.80
75769;DHT22;64379;48.888;8.330;2023-12-14T03:18:19;7.20;90.80
75769;DHT22;64379;48.888;8.330;2023-12-14T03:20:45;7.10;90.90
75769;DHT22;64379;48.888;8.330;2023-12-14T03:23:11;7.10;91.00
75769;DHT22;64379;48.888;8.330;2023-12-14T03:25:37;7.20;91.00
75769;DHT22;64379;48.888;8.330;2023-12-14T03:28:03;7.20;91.00
75769;DHT22;64379;48.888;8.330;2023-12-14T03:30:28;7.20;91.00
75769;DHT22;64379;48.888;8.330;2023-12-14T03:32:54;7.20;91.10
75769;DHT22;64379;48.888;8.330;2023-12-14T03:35:19;7.20;91.10
75769;DHT22;64379;48.888;8.330;2023-12-14T03:37:45;7.20;91.10
75769;DHT22;64379;48.888;8.330;2023-12-14T03:40:11;7.20;91.10
75769;DHT22;64379;48.888;8.330;2023-12-14T03:42:36;7.20;91.20
75769;DHT22;64379;48.888;8.330;2023-12-14T03:45:02;7.20;91.20
75769;DHT22;64379;48.888;8.330;2023-12-14T03:47:27;7.20;91.20
75769;DHT22;64379;48.888;8.330;2023-12-14T03:49:53;7.20;91.20
75769;DHT22;64379;48.888;8.330;2023-12-14T03:52:19;7.20;91.20
75769;DHT22;64379;48.888;8.330;2023-12-14T03:54:44;7.20;91.20
75769;DHT22;64379;48.888;8.330;2023-12-14T03:57:10;7.20;91.30
75769;DHT22;64379;48.888;8.330;2023-12-14T03:59:39;7.20;91.30
75769;DHT22;64379;48.888;8.330;2023-12-14T04:02:05;7.20;91.40
75769;DHT22;64379;48.888;8.330;2023-12-14T04:04:31;7.20;91.40
75769;DHT22;64379;48.888;8.330;2023-12-14T04:06:56;7.20;91.50
75769;DHT22;64379;48.888;8.330;2023-12-14T04:09:22;7.20;91.40
75769;DHT22;64379;48.888;8.330;2023-12-14T04:11:48;7.20;91.50
75769;DHT22;64379;48.888;8.330;2023-12-14T04:14:16;7.20;91.50
75769;DHT22;64379;48.888;8.330;2023-12-14T04:16:42;7.20;91.50
75769;DHT22;64379;48.888;8.330;2023-12-14T04:19:08;7.20;91.50
75769;DHT22;64379;48.888;8.330;2023-12-14T04:21:36;7.20;91.60
75769;DHT22;64379;48.888;8.330;2023-12-14T04:24:02;7.20;91.60
75769;DHT22;64379;48.888;8.330;2023-12-14T04:26:27;7.30;91.60
75769;DHT22;64379;48.888;8.330;2023-12-14T04:28:53;7.40;91.60
75769;DHT22;64379;48.888;8.330;2023-12-14T04:31:19;7.40;91.50
75769;DHT22;64379;48.888;8.330;2023-12-14T04:33:44;7.40;91.50
75769;DHT22;64379;48.888;8.330;2023-12-14T04:36:10;7.40;91.50
75769;DHT22;64379;48.888;8.330;2023-12-14T04:38:35;7.30;91.60
75769;DHT22;64379;48.888;8.330;2023-12-14T04:41:01;7.30;91.60
75769;DHT22;64379;48.888;8.330;2023-12-14T04:43:27;7.30;91.60
75769;DHT22;64379;48.888;8.330;2023-12-14T04:45:55;7.40;91.70
75769;DHT22;64379;48.888;8.330;2023-12-14T04:48:20;7.40;91.70
75769;DHT22;64379;48.888;8.330;2023-12-14T04:50:46;7.50;91.70
75769;DHT22;64379;48.888;8.330;2023-12-14T04:53:12;7.50;91.70
75769;DHT22;64379;48.888;8.330;2023-12-14T04:55:37;7.50;91.70
75769;DHT22;64379;48.888;8.330;2023-12-14T04:58:03;7.40;91.60
75769;DHT22;64379;48.888;8.330;2023-12-14T05:00:28;7.40;91.60
75769;DHT22;64379;48.888;8.330;2023-12-14T05:02:54;7.40;91.60
75769;DHT22;64379;48.888;8.330;2023-12-14T05:05:20;7.40;91.60
75769;DHT22;64379;48.888;8.330;2023-12-14T05:07:45;7.40;91.60
75769;DHT22;64379;48.888;8.330;2023-12-14T05:10:11;7.40;91.70
75769;DHT22;64379;48.888;8.330;2023-12-14T05:12:36;7.40;91.70
75769;DHT22;64379;48.888;8.330;2023-12-14T05:15:04;7.40;91.70
75769;DHT22;64379;48.888;8.330;2023-12-14T05:17:30;7.40;91.70
75769;DHT22;64379;48.888;8.330;2023-12-14T05:19:55;7.30;91.80
75769;DHT22;64379;48.888;8.330;2023-12-14T05:22:21;7.20;91.80
75769;DHT22;64379;48.888;8.330;2023-12-14T05:24:50;7.20;91.80
75769;DHT22;64379;48.888;8.330;2023-12-14T05:27:15;7.20;91.90
75769;DHT22;64379;48.888;8.330;2023-12-14T05:29:41;7.20;92.00
75769;DHT22;64379;48.888;8.330;2023-12-14T05:32:06;7.20;92.00
75769;DHT22;64379;48.888;8.330;2023-12-14T05:34:32;7.30;92.00
75769;DHT22;64379;48.888;8.330;2023-12-14T05:36:58;7.30;92.00
75769;DHT22;64379;48.888;8.330;2023-12-14T05:39:23;7.40;92.10
75769;DHT22;64379;48.888;8.330;2023-12-14T05:41:49;7.30;92.10
75769;DHT22;64379;48.888;8.330;2023-12-14T05:44:14;7.30;92.10
75769;DHT22;64379;48.888;8.330;2023-12-14T05:46:40;7.40;92.10
75769;DHT22;64379;48.888;8.330;2023-12-14T05:49:05;7.40;92.10
75769;DHT22;64379;48.888;8.330;2023-12-14T05:51:32;7.30;92.10
75769;DHT22;64379;48.888;8.330;2023-12-14T05:53:58;7.40;92.00
75769;DHT22;64379;48.888;8.330;2023-12-14T05:56:25;7.30;92.00
75769;DHT22;64379;48.888;8.330;2023-12-14T05:58:51;7.40;92.00
75769;DHT22;64379;48.888;8.330;2023-12-14T06:01:17;7.30;92.00
75769;DHT22;64379;48.888;8.330;2023-12-14T06:03:44;7.40;92.00
75769;DHT22;64379;48.888;8.330;2023-12-14T06:06:09;7.40;92.00
75769;DHT22;64379;48.888;8.330;2023-12-14T06:08:35;7.40;92.00
75769;DHT22;64379;48.888;8.330;2023-12-14T06:11:00;7.40;92.00
75769;DHT22;64379;48.888;8.330;2023-12-14T06:13:26;7.40;91.90
75769;DHT22;64379;48.888;8.330;2023-12-14T06:15:52;7.40;91.90
75769;DHT22;64379;48.888;8.330;2023-12-14T06:18:17;7.40;91.90
75769;DHT22;64379;48.888;8.330;2023-12-14T06:20:43;7.40;91.80
75769;DHT22;64379;48.888;8.330;2023-12-14T06:23:08;7.30;91.90
75769;DHT22;64379;48.888;8.330;2023-12-14T06:25:34;7.30;91.90
75769;DHT22;64379;48.888;8.330;2023-12-14T06:27:59;7.40;91.80
75769;DHT22;64379;48.888;8.330;2023-12-14T06:30:25;7.30;91.80
75769;DHT22;64379;48.888;8.330;2023-12-14T06:32:51;7.40;91.80
75769;DHT22;64379;48.888;8.330;2023-12-14T06:35:16;7.40;91.80
75769;DHT22;64379;48.888;8.330;2023-12-14T06:37:42;7.30;91.80
75769;DHT22;64379;48.888;8.330;2023-12-14T06:40:08;7.20;91.80
75769;DHT22;64379;48.888;8.330;2023-12-14T06:42:34;7.20;91.80
75769;DHT22;64379;48.888;8.330;2023-12-14T06:45:02;7.20;91.80
75769;DHT22;64379;48.888;8.330;2023-12-14T06:47:28;7.20;91.80
75769;DHT22;64379;48.888;8.330;2023-12-14T06:49:54;7.20;91.90
75769;DHT22;64379;48.888;8.330;2023-12-14T06:52:21;7.30;91.90
75769;DHT22;64379;48.888;8.330;2023-12-14T06:54:46;7.20;91.90
75769;DHT22;64379;48.888;8.330;2023-12-14T06:57:12;7.20;91.90
75769;DHT22;64379;48.888;8.330;2023-12-14T06:59:38;7.20;91.90
75769;DHT22;64379;48.888;8.330;2023-12-14T07:02:03;7.20;92.00
75769;DHT22;64379;48.888;8.330;2023-12-14T07:04:29;7.20;92.00
75769;DHT22;64379;48.888;8.330;2023-12-14T07:06:55;7.20;92.00
75769;DHT22;64379;48.888;8.330;2023-12-14T07:09:20;7.20;92.00
75769;DHT22;64379;48.888;8.330;2023-12-14T07:11:46;7.30;92.00
75769;DHT22;64379;48.888;8.330;2023-12-14T07:14:12;7.20;92.00
75769;DHT22;64379;48.888;8.330;2023-12-14T07:16:38;7.20;92.00
75769;DHT22;64379;48.888;8.330;2023-12-14T07:19:04;7.20;92.00
75769;DHT22;64379;48.888;8.330;2023-12-14T07:21:29;7.20;92.00
75769;DHT22;64379;48.888;8.330;2023-12-14T07:23:55;7.20;92.00
75769;DHT22;64379;48.888;8.330;2023-12-14T07:26:21;7.20;92.00
75769;DHT22;64379;48.888;8.330;2023-12-14T07:28:46;7.20;92.00
75769;DHT22;64379;48.888;8.330;2023-12-14T07:31:12;7.20;92.00
75769;DHT22;64379;48.888;8.330;2023-12-14T07:33:38;7.20;92.00
75769;DHT22;64379;48.888;8.330;2023-12-14T07:36:03;7.20;92.00
75769;DHT22;64379;48.888;8.330;2023-12-14T07:38:31;7.20;92.00
75769;DHT22;64379;48.888;8.330;2023-12-14T07:40:57;7.30;92.00
75769;DHT22;64379;48.888;8.330;2023-12-14T07:43:23;7.30;91.90
75769;DHT22;64379;48.888;8.330;2023-12-14T07:45:48;7.20;91.80
75769;DHT22;64379;48.888;8.330;2023-12-14T07:48:14;7.30;91.80
75769;DHT22;64379;48.888;8.330;2023-12-14T07:50:40;7.20;91.80
75769;DHT22;64379;48.888;8.330;2023-12-14T07:53:05;7.30;91.70
75769;DHT22;64379;48.888;8.330;2023-12-14T07:55:31;7.30;91.70
75769;DHT22;64379;48.888;8.330;2023-12-14T07:57:56;7.40;91.60
75769;DHT22;64379;48.888;8.330;2023-12-14T08:00:22;7.40;91.50
75769;DHT22;64379;48.888;8.330;2023-12-14T08:02:48;7.40;91.40
75769;DHT22;64379;48.888;8.330;2023-12-14T08:05:13;7.40;91.40
75769;DHT22;64379;48.888;8.330;2023-12-14T08:07:42;7.40;91.30
75769;DHT22;64379;48.888;8.330;2023-12-14T08:10:08;7.40;91.20
75769;DHT22;64379;48.888;8.330;2023-12-14T08:12:33;7.40;91.20
75769;DHT22;64379;48.888;8.330;2023-12-14T08:14:59;7.40;91.20
75769;DHT22;64379;48.888;8.330;2023-12-14T08:17:27;7.40;91.20
75769;DHT22;64379;48.888;8.330;2023-12-14T08:19:53;7.40;91.20
75769;DHT22;64379;48.888;8.330;2023-12-14T08:22:19;7.40;91.20
75769;DHT22;64379;48.888;8.330;2023-12-14T08:24:47;7.50;91.20
75769;DHT22;64379;48.888;8.330;2023-12-14T08:27:13;7.50;91.10
75769;DHT22;64379;48.888;8.330;2023-12-14T08:29:38;7.50;91.00
75769;DHT22;64379;48.888;8.330;2023-12-14T08:32:04;7.50;91.00
75769;DHT22;64379;48.888;8.330;2023-12-14T08:34:30;7.50;90.80
75769;DHT22;64379;48.888;8.330;2023-12-14T08:36:56;7.50;90.70
75769;DHT22;64379;48.888;8.330;2023-12-14T08:39:21;7.60;90.60
75769;DHT22;64379;48.888;8.330;2023-12-14T08:41:47;7.60;90.50
75769;DHT22;64379;48.888;8.330;2023-12-14T08:44:14;7.60;90.30
75769;DHT22;64379;48.888;8.330;2023-12-14T08:46:42;7.60;90.30
75769;DHT22;64379;48.888;8.330;2023-12-14T08:49:07;7.60;90.20
75769;DHT22;64379;48.888;8.330;2023-12-14T08:51:33;7.60;90.20
75769;DHT22;64379;48.888;8.330;2023-12-14T08:53:59;7.70;90.20
75769;DHT22;64379;48.888;8.330;2023-12-14T08:56:24;7.80;90.10
75769;DHT22;64379;48.888;8.330;2023-12-14T08:58:53;7.80;90.00
75769;DHT22;64379;48.888;8.330;2023-12-14T09:01:22;8.00;89.80
75769;DHT22;64379;48.888;8.330;2023-12-14T09:03:48;8.00;89.30
75769;DHT22;64379;48.888;8.330;2023-12-14T09:06:15;7.90;89.10
75769;DHT22;64379;48.888;8.330;2023-12-14T09:08:41;8.00;89.20
75769;DHT22;64379;48.888;8.330;2023-12-14T09:11:07;8.00;89.30
75769;DHT22;64379;48.888;8.330;2023-12-14T09:13:32;8.10;89.30
75769;DHT22;64379;48.888;8.330;2023-12-14T09:15:58;8.10;88.80
75769;DHT22;64379;48.888;8.330;2023-12-14T09:18:24;8.10;88.70
75769;DHT22;64379;48.888;8.330;2023-12-14T09:20:50;8.20;88.60
75769;DHT22;64379;48.888;8.330;2023-12-14T09:23:16;8.10;88.50
75769;DHT22;64379;48.888;8.330;2023-12-14T09:25:42;8.10;88.60
75769;DHT22;64379;48.888;8.330;2023-12-14T09:28:10;8.20;88.50
75769;DHT22;64379;48.888;8.330;2023-12-14T09:30:35;8.20;88.60
75769;DHT22;64379;48.888;8.330;2023-12-14T09:33:01;8.10;88.30
75769;DHT22;64379;48.888;8.330;2023-12-14T09:35:29;8.30;88.50
75769;DHT22;64379;48.888;8.330;2023-12-14T09:37:55;8.30;87.80
75769;DHT22;64379;48.888;8.330;2023-12-14T09:40:22;8.30;87.90
75769;DHT22;64379;48.888;8.330;2023-12-14T09:42:48;8.40;87.80
75769;DHT22;64379;48.888;8.330;2023-12-14T09:45:16;8.30;87.30
75769;DHT22;64379;48.888;8.330;2023-12-14T09:47:42;8.20;87.70
75769;DHT22;64379;48.888;8.330;2023-12-14T09:50:08;8.20;87.90
75769;DHT22;64379;48.888;8.330;2023-12-14T09:52:34;8.20;87.90
75769;DHT22;64379;48.888;8.330;2023-12-14T09:54:59;8.10;87.90
75769;DHT22;64379;48.888;8.330;2023-12-14T09:57:25;8.20;88.10
75769;DHT22;64379;48.888;8.330;2023-12-14T09:59:53;8.20;88.00
75769;DHT22;64379;48.888;8.330;2023-12-14T10:02:19;8.20;88.00
75769;DHT22;64379;48.888;8.330;2023-12-14T10:04:46;8.20;88.00
75769;DHT22;64379;48.888;8.330;2023-12-14T10:07:11;8.20;88.00
75769;DHT22;64379;48.888;8.330;2023-12-14T10:09:37;8.20;88.00
75769;DHT22;64379;48.888;8.330;2023-12-14T10:12:08;8.30;87.90
75769;DHT22;64379;48.888;8.330;2023-12-14T10:14:35;8.30;87.80
75769;DHT22;64379;48.888;8.330;2023-12-14T10:17:21;8.40;87.50
75769;DHT22;64379;48.888;8.330;2023-12-14T10:19:48;8.50;87.30
75769;DHT22;64379;48.888;8.330;2023-12-14T10:22:15;8.40;87.20
75769;DHT22;64379;48.888;8.330;2023-12-14T10:24:44;8.40;87.10
75769;DHT22;64379;48.888;8.330;2023-12-14T10:27:10;8.50;87.20
75769;DHT22;64379;48.888;8.330;2023-12-14T10:29:39;8.60;87.10
75769;DHT22;64379;48.888;8.330;2023-12-14T10:32:06;8.60;86.80
75769;DHT22;64379;48.888;8.330;2023-12-14T10:34:34;8.90;86.60
75769;DHT22;64379;48.888;8.330;2023-12-14T10:37:01;9.10;86.30
75769;DHT22;64379;48.888;8.330;2023-12-14T10:39:28;9.30;85.10
75769;DHT22;64379;48.888;8.330;2023-12-14T10:41:57;9.20;84.60
75769;DHT22;64379;48.888;8.330;2023-12-14T10:44:26;9.10;84.90
75769;DHT22;64379;48.888;8.330;2023-12-14T10:46:55;9.00;84.90
75769;DHT22;64379;48.888;8.330;2023-12-14T10:49:29;8.90;85.50
75769;DHT22;64379;48.888;8.330;2023-12-14T10:51:57;8.80;85.90
75769;DHT22;64379;48.888;8.330;2023-12-14T10:54:24;8.60;86.20
75769;DHT22;64379;48.888;8.330;2023-12-14T10:56:54;8.60;86.80
75769;DHT22;64379;48.888;8.330;2023-12-14T10:59:21;8.80;86.80
75769;DHT22;64379;48.888;8.330;2023-12-14T11:01:55;8.60;86.60
75769;DHT22;64379;48.888;8.330;2023-12-14T11:04:22;8.60;87.00
75769;DHT22;64379;48.888;8.330;2023-12-14T11:06:48;8.60;86.80
75769;DHT22;64379;48.888;8.330;2023-12-14T11:09:17;8.60;86.30
75769;DHT22;64379;48.888;8.330;2023-12-14T11:14:19;8.60;86.70
75769;DHT22;64379;48.888;8.330;2023-12-14T11:16:45;8.60;86.70
75769;DHT22;64379;48.888;8.330;2023-12-14T11:21:47;8.60;87.20
75769;DHT22;64379;48.888;8.330;2023-12-14T11:24:13;8.60;87.30
75769;DHT22;64379;48.888;8.330;2023-12-14T11:26:39;8.60;87.50
75769;DHT22;64379;48.888;8.330;2023-12-14T11:29:06;8.70;87.50
75769;DHT22;64379;48.888;8.330;2023-12-14T11:31:32;8.60;87.20
75769;DHT22;64379;48.888;8.330;2023-12-14T11:33:59;8.60;87.20
75769;DHT22;64379;48.888;8.330;2023-12-14T11:36:26;8.60;87.70
75769;DHT22;64379;48.888;8.330;2023-12-14T11:38:52;8.70;87.60
75769;DHT22;64379;48.888;8.330;2023-12-14T11:41:21;8.60;87.30
75769;DHT22;64379;48.888;8.330;2023-12-14T11:43:46;8.70;87.60
75769;DHT22;64379;48.888;8.330;2023-12-14T11:46:13;8.80;87.70
75769;DHT22;64379;48.888;8.330;2023-12-14T11:48:39;8.80;87.50
75769;DHT22;64379;48.888;8.330;2023-12-14T11:51:05;8.80;87.60
75769;DHT22;64379;48.888;8.330;2023-12-14T11:53:31;8.80;87.50
75769;DHT22;64379;48.888;8.330;2023-12-14T11:55:59;8.80;87.60
75769;DHT22;64379;48.888;8.330;2023-12-14T11:58:26;8.80;87.60
75769;DHT22;64379;48.888;8.330;2023-12-14T12:00:51;8.80;87.60
75769;DHT22;64379;48.888;8.330;2023-12-14T12:03:20;8.80;87.60
75769;DHT22;64379;48.888;8.330;2023-12-14T12:05:51;8.90;87.80
75769;DHT22;64379;48.888;8.330;2023-12-14T12:08:18;8.80;87.60
75769;DHT22;64379;48.888;8.330;2023-12-14T12:10:45;8.90;87.60
75769;DHT22;64379;48.888;8.330;2023-12-14T12:13:16;9.00;87.50
75769;DHT22;64379;48.888;8.330;2023-12-14T12:15:43;9.00;87.10
75769;DHT22;64379;48.888;8.330;2023-12-14T12:18:14;9.20;86.70
75769;DHT22;64379;48.888;8.330;2023-12-14T12:20:40;9.40;84.70
75769;DHT22;64379;48.888;8.330;2023-12-14T12:23:06;9.30;84.10
75769;DHT22;64379;48.888;8.330;2023-12-14T12:25:33;9.40;82.90
75769;DHT22;64379;48.888;8.330;2023-12-14T12:28:00;9.40;83.30
75769;DHT22;64379;48.888;8.330;2023-12-14T12:30:27;9.40;83.30
75769;DHT22;64379;48.888;8.330;2023-12-14T12:32:53;9.30;83.50
75769;DHT22;64379;48.888;8.330;2023-12-14T12:35:20;9.20;83.40
75769;DHT22;64379;48.888;8.330;2023-12-14T12:37:46;9.20;83.30
75769;DHT22;64379;48.888;8.330;2023-12-14T12:40:12;9.20;83.10
75769;DHT22;64379;48.888;8.330;2023-12-14T12:42:38;9.20;83.70
75769;DHT22;64379;48.888;8.330;2023-12-14T12:45:05;9.10;84.10
75769;DHT22;64379;48.888;8.330;2023-12-14T12:47:31;8.90;84.10
75769;DHT22;64379;48.888;8.330;2023-12-14T12:49:57;8.70;84.80
75769;DHT22;64379;48.888;8.330;2023-12-14T12:52:23;8.70;85.40
75769;DHT22;64379;48.888;8.330;2023-12-14T12:54:48;8.80;85.80
75769;DHT22;64379;48.888;8.330;2023-12-14T12:57:14;8.90;85.80
75769;DHT22;64379;48.888;8.330;2023-12-14T12:59:40;8.90;85.30
75769;DHT22;64379;48.888;8.330;2023-12-14T13:02:06;8.80;85.30
75769;DHT22;64379;48.888;8.330;2023-12-14T13:04:32;8.80;85.50
75769;DHT22;64379;48.888;8.330;2023-12-14T13:06:57;8.70;85.30
75769;DHT22;64379;48.888;8.330;2023-12-14T13:09:23;8.60;85.30
75769;DHT22;64379;48.888;8.330;2023-12-14T13:11:49;8.60;85.50
75769;DHT22;64379;48.888;8.330;2023-12-14T13:14:15;8.60;85.80
75769;DHT22;64379;48.888;8.330;2023-12-14T13:16:42;8.60;85.20
75769;DHT22;64379;48.888;8.330;2023-12-14T13:19:08;8.60;85.10
75769;DHT22;64379;48.888;8.330;2023-12-14T13:21:34;8.80;84.90
75769;DHT22;64379;48.888;8.330;2023-12-14T13:23:59;8.90;84.30
75769;DHT22;64379;48.888;8.330;2023-12-14T13:26:25;8.90;84.60
75769;DHT22;64379;48.888;8.330;2023-12-14T13:28:51;9.00;84.10
75769;DHT22;64379;48.888;8.330;2023-12-14T13:31:17;9.00;83.60
75769;DHT22;64379;48.888;8.330;2023-12-14T13:33:43;9.10;83.60
75769;DHT22;64379;48.888;8.330;2023-12-14T13:36:09;9.20;83.70
75769;DHT22;64379;48.888;8.330;2023-12-14T13:38:35;9.20;83.30
75769;DHT22;64379;48.888;8.330;2023-12-14T13:41:02;9.20;83.30
75769;DHT22;64379;48.888;8.330;2023-12-14T13:43:29;9.20;83.50
75769;DHT22;64379;48.888;8.330;2023-12-14T13:45:55;9.20;83.60
75769;DHT22;64379;48.888;8.330;2023-12-14T13:48:23;9.20;83.10
75769;DHT22;64379;48.888;8.330;2023-12-14T13:50:50;9.10;82.80
75769;DHT22;64379;48.888;8.330;2023-12-14T13:53:15;9.00;83.10
75769;DHT22;64379;48.888;8.330;2023-12-14T13:55:41;9.00;83.30
75769;DHT22;64379;48.888;8.330;2023-12-14T13:58:06;9.00;82.70
75769;DHT22;64379;48.888;8.330;2023-12-14T14:00:32;9.00;82.90
75769;DHT22;64379;48.888;8.330;2023-12-14T14:03:02;9.00;82.80
75769;DHT22;64379;48.888;8.330;2023-12-14T14:05:29;9.00;82.90
75769;DHT22;64379;48.888;8.330;2023-12-14T14:07:56;9.00;82.80
75769;DHT22;64379;48.888;8.330;2023-12-14T14:10:22;9.00;82.40
75769;DHT22;64379;48.888;8.330;2023-12-14T14:12:47;9.00;82.60
75769;DHT22;64379;48.888;8.330;2023-12-14T14:15:13;9.00;82.70
75769;DHT22;64379;48.888;8.330;2023-12-14T14:17:39;8.90;82.70
75769;DHT22;64379;48.888;8.330;2023-12-14T14:20:05;8.90;83.20
75769;DHT22;64379;48.888;8.330;2023-12-14T14:22:32;8.80;83.10
75769;DHT22;64379;48.888;8.330;2023-12-14T14:24:59;8.80;83.30
75769;DHT22;64379;48.888;8.330;2023-12-14T14:27:25;8.70;83.50
75769;DHT22;64379;48.888;8.330;2023-12-14T14:29:51;8.60;83.50
75769;DHT22;64379;48.888;8.330;2023-12-14T14:32:19;8.60;83.60
75769;DHT22;64379;48.888;8.330;2023-12-14T14:34:45;8.60;83.20
75769;DHT22;64379;48.888;8.330;2023-12-14T14:37:11;8.60;83.50
75769;DHT22;64379;48.888;8.330;2023-12-14T14:39:36;8.60;83.50
75769;DHT22;64379;48.888;8.330;2023-12-14T14:42:05;8.60;83.50
75769;DHT22;64379;48.888;8.330;2023-12-14T14:44:31;8.60;83.60
75769;DHT22;64379;48.888;8.330;2023-12-14T14:46:56;8.60;83.50
75769;DHT22;64379;48.888;8.330;2023-12-14T14:49:22;8.60;83.50
75769;DHT22;64379;48.888;8.330;2023-12-14T14:51:48;8.60;83.90
75769;DHT22;64379;48.888;8.330;2023-12-14T14:54:13;8.50;84.40
75769;DHT22;64379;48.888;8.330;2023-12-14T14:56:40;8.50;84.90
75769;DHT22;64379;48.888;8.330;2023-12-14T14:59:07;8.50;85.10
75769;DHT22;64379;48.888;8.330;2023-12-14T15:01:34;8.50;85.30
75769;DHT22;64379;48.888;8.330;2023-12-14T15:04:00;8.50;85.60
75769;DHT22;64379;48.888;8.330;2023-12-14T15:06:25;8.40;85.50
75769;DHT22;64379;48.888;8.330;2023-12-14T15:08:51;8.40;85.50
75769;DHT22;64379;48.888;8.330;2023-12-14T15:11:17;8.40;85.60
75769;DHT22;64379;48.888;8.330;2023-12-14T15:13:42;8.40;85.80
75769;DHT22;64379;48.888;8.330;2023-12-14T15:16:08;8.40;85.80
75769;DHT22;64379;48.888;8.330;2023-12-14T15:18:34;8.40;86.00
75769;DHT22;64379;48.888;8.330;2023-12-14T15:21:07;8.40;86.10
75769;DHT22;64379;48.888;8.330;2023-12-14T15:23:33;8.40;86.20
75769;DHT22;64379;48.888;8.330;2023-12-14T15:25:58;8.40;86.30
75769;DHT22;64379;48.888;8.330;2023-12-14T15:28:24;8.30;86.40
75769;DHT22;64379;48.888;8.330;2023-12-14T15:30:49;8.30;86.50
75769;DHT22;64379;48.888;8.330;2023-12-14T15:33:15;8.30;86.60
75769;DHT22;64379;48.888;8.330;2023-12-14T15:35:40;8.20;86.60
75769;DHT22;64379;48.888;8.330;2023-12-14T15:38:06;8.20;86.50
75769;DHT22;64379;48.888;8.330;2023-12-14T15:40:31;8.20;86.60
75769;DHT22;64379;48.888;8.330;2023-12-14T15:42:57;8.10;86.60
75769;DHT22;64379;48.888;8.330;2023-12-14T15:45:23;8.10;86.60